createdAt,value
2023-04-05T00:01:55.725Z,68.28
2023-04-05T00:05:00.906Z,68.02
2023-04-05T00:08:08.501Z,68.29
2023-04-05T00:11:12.057Z,67.97
2023-04-05T00:14:15.649Z,68.37
2023-04-05T00:17:19.345Z,68.15
2023-04-05T00:20:22.970Z,67.86
2023-04-05T00:23:28.473Z,67.73
2023-04-05T00:26:32.391Z,67.75
2023-04-05T00:29:36.154Z,67.67
2023-04-05T00:32:39.850Z,68.24
2023-04-05T00:35:43.592Z,67.94
2023-04-05T00:38:50.801Z,68.03
2023-04-05T00:41:54.312Z,68.29
2023-04-05T00:44:57.865Z,68.03
2023-04-05T00:48:02.084Z,67.79
2023-04-05T00:51:09.678Z,66.09
2023-04-05T00:54:15.882Z,66.53
2023-04-05T00:57:20.322Z,66.07
2023-04-05T01:00:24.662Z,65.77
2023-04-05T01:03:31.349Z,66.20
2023-04-05T01:07:01.180Z,66.62
2023-04-05T01:10:09.410Z,66.20
2023-04-05T01:13:13.089Z,67.60
2023-04-05T01:16:17.072Z,67.24
2023-04-05T01:19:20.706Z,66.43
2023-04-05T01:23:06.316Z,67.16
2023-04-05T01:26:42.263Z,67.07
2023-04-05T01:30:05.110Z,66.68
2023-04-05T01:33:16.612Z,66.55
2023-04-05T01:36:25.401Z,67.08
2023-04-05T01:39:29.771Z,66.10
2023-04-05T01:42:33.523Z,65.76
2023-04-05T01:45:38.621Z,66.27
2023-04-05T01:48:42.148Z,66.30
2023-04-05T01:51:45.851Z,66.35
2023-04-05T01:54:49.396Z,67.13
2023-04-05T01:57:53.865Z,67.51
2023-04-05T02:00:59.163Z,67.23
2023-04-05T02:04:02.700Z,67.59
2023-04-05T02:07:07.755Z,66.72
2023-04-05T02:10:11.615Z,66.11
2023-04-05T02:13:16.279Z,66.68
2023-04-05T02:16:21.381Z,66.81
2023-04-05T02:19:26.169Z,67.09
2023-04-05T02:22:30.026Z,66.74
2023-04-05T02:25:33.958Z,66.67
2023-04-05T02:28:37.472Z,66.68
2023-04-05T02:31:42.572Z,66.96
2023-04-05T02:34:46.475Z,68.49
2023-04-05T02:37:50.147Z,69.06
2023-04-05T02:40:53.714Z,68.70
2023-04-05T02:43:57.158Z,68.96
2023-04-05T02:47:02.068Z,68.19
2023-04-05T02:50:09.800Z,68.27
2023-04-05T02:53:19.557Z,68.49
2023-04-05T02:56:30.644Z,68.86
2023-04-05T02:59:36.852Z,68.88
2023-04-05T03:02:42.973Z,68.98
2023-04-05T03:05:47.373Z,68.75
2023-04-05T03:08:52.265Z,70.56
2023-04-05T03:12:03.824Z,68.78
2023-04-05T03:15:11.044Z,67.65
2023-04-05T03:18:20.765Z,68.91
2023-04-05T03:21:26.762Z,67.79
2023-04-05T03:24:42.723Z,66.75
2023-04-05T03:27:49.094Z,66.42
2023-04-05T03:30:54.624Z,65.28
2023-04-05T03:33:59.936Z,65.05
2023-04-05T03:37:07.790Z,65.89
2023-04-05T03:40:20.994Z,65.36
2023-04-05T03:43:25.780Z,65.77
2023-04-05T03:46:29.345Z,65.51
2023-04-05T03:49:34.392Z,65.37
2023-04-05T03:52:37.918Z,65.24
2023-04-05T03:55:43.552Z,65.38
2023-04-05T03:58:47.901Z,66.44
2023-04-05T04:01:53.490Z,65.52
2023-04-05T04:05:01.240Z,65.40
2023-04-05T04:08:05.308Z,66.19
2023-04-05T04:11:09.068Z,64.98
2023-04-05T04:14:15.697Z,65.59
2023-04-05T04:17:48.382Z,65.51
2023-04-05T04:21:12.518Z,65.43
2023-04-05T04:24:46.583Z,65.00
2023-04-05T04:28:06.886Z,64.69
2023-04-05T04:31:29.433Z,65.69
2023-04-05T04:34:34.876Z,66.30
2023-04-05T04:38:10.548Z,65.55
2023-04-05T04:41:27.349Z,66.40
2023-04-05T04:44:46.273Z,64.38
2023-04-05T04:48:00.160Z,64.44
2023-04-05T04:51:15.988Z,64.57
2023-04-05T04:54:22.602Z,64.91
2023-04-05T04:57:27.318Z,63.47
2023-04-05T05:00:31.693Z,63.88
2023-04-05T05:03:36.769Z,63.86
2023-04-05T05:06:40.541Z,63.59
2023-04-05T05:09:45.908Z,62.24
2023-04-05T05:12:49.892Z,62.42
2023-04-05T05:15:53.845Z,62.00
2023-04-05T05:18:57.637Z,63.36
2023-04-05T05:22:04.652Z,62.22
2023-04-05T05:25:12.564Z,62.62
2023-04-05T05:28:16.809Z,62.42
2023-04-05T05:31:20.484Z,61.58
2023-04-05T05:34:24.718Z,61.45
2023-04-05T05:37:33.752Z,61.14
2023-04-05T05:40:39.182Z,61.50
2023-04-05T05:43:42.996Z,60.67
2023-04-05T05:46:46.775Z,61.09
2023-04-05T05:49:50.939Z,60.81
2023-04-05T05:52:54.871Z,60.60
2023-04-05T05:56:01.288Z,59.58
2023-04-05T05:59:05.134Z,60.28
2023-04-05T06:02:15.302Z,59.66
2023-04-05T06:05:19.344Z,59.89
2023-04-05T06:08:23.086Z,59.02
2023-04-05T06:11:28.335Z,59.50
2023-04-05T06:14:31.983Z,59.47
2023-04-05T06:17:42.141Z,59.49
2023-04-05T06:20:45.901Z,60.42
2023-04-05T06:23:49.856Z,60.64
2023-04-05T06:26:55.047Z,60.04
2023-04-05T06:30:01.385Z,58.92
2023-04-05T06:33:05.156Z,58.88
2023-04-05T06:36:09.457Z,59.01
2023-04-05T06:39:13.719Z,59.05
2023-04-05T06:42:19.010Z,57.80
2023-04-05T06:45:29.709Z,58.37
2023-04-05T06:48:35.246Z,57.35
2023-04-05T06:51:38.962Z,57.69
2023-04-05T06:54:42.768Z,57.62
2023-04-05T06:57:47.910Z,58.04
2023-04-05T07:00:51.694Z,57.81
2023-04-05T07:03:55.947Z,57.45
2023-04-05T07:07:02.282Z,58.45
2023-04-05T07:10:06.745Z,58.05
2023-04-05T07:13:11.799Z,57.94
2023-04-05T07:16:15.583Z,57.72
2023-04-05T07:19:19.349Z,57.67
2023-04-05T07:22:23.019Z,57.46
2023-04-05T07:25:26.750Z,57.18
2023-04-05T07:28:32.152Z,56.98
2023-04-05T07:31:35.996Z,56.69
2023-04-05T07:34:39.673Z,56.90
2023-04-05T07:37:43.423Z,56.19
2023-04-05T07:40:47.234Z,56.36
2023-04-05T07:43:52.454Z,56.21
2023-04-05T07:46:56.214Z,55.67
2023-04-05T07:50:00.081Z,54.84
2023-04-05T07:53:03.919Z,54.40
2023-04-05T07:56:08.776Z,54.74
2023-04-05T07:59:15.009Z,55.51
2023-04-05T08:02:19.210Z,55.07
2023-04-05T08:05:23.067Z,55.14
2023-04-05T08:08:26.890Z,54.49
2023-04-05T08:11:30.714Z,54.05
2023-04-05T08:14:36.048Z,53.05
2023-04-05T08:17:39.745Z,51.98
2023-04-05T08:20:43.635Z,52.92
2023-04-05T08:23:47.430Z,52.82
2023-04-05T08:26:51.128Z,52.09
2023-04-05T08:29:56.281Z,53.66
2023-04-05T08:33:00.200Z,53.27
2023-04-05T08:36:07.731Z,52.89
2023-04-05T08:39:11.730Z,51.33
2023-04-05T08:42:18.888Z,51.40
2023-04-05T08:45:25.931Z,52.03
2023-04-05T08:48:33.131Z,52.59
2023-04-05T08:51:40.545Z,53.04
2023-04-05T08:54:44.277Z,53.43
2023-04-05T08:57:55.736Z,53.43
2023-04-05T09:01:01.769Z,53.84
2023-04-05T09:04:08.439Z,54.03
2023-04-05T09:07:14.881Z,53.13
2023-04-05T09:10:20.976Z,52.32
2023-04-05T09:13:24.625Z,52.51
2023-04-05T09:16:30.466Z,52.57
2023-04-05T09:19:34.220Z,51.96
2023-04-05T09:22:45.487Z,52.96
2023-04-05T09:25:52.852Z,52.00
2023-04-05T09:28:56.665Z,52.62
2023-04-05T09:32:02.339Z,53.03
2023-04-05T09:35:06.925Z,53.15
2023-04-05T09:38:12.494Z,53.54
2023-04-05T09:41:16.225Z,53.19
2023-04-05T09:44:20.005Z,52.71
2023-04-05T09:47:27.810Z,52.53
2023-04-05T09:50:35.227Z,53.55
2023-04-05T09:53:59.128Z,53.09
2023-04-05T09:57:03.644Z,53.27
2023-04-05T10:00:10.819Z,52.68
2023-04-05T10:03:27.650Z,52.97
2023-04-05T10:06:37.841Z,51.73
2023-04-05T10:09:42.528Z,51.52
2023-04-05T10:12:48.430Z,52.13
2023-04-05T10:15:54.447Z,53.01
2023-04-05T10:18:59.738Z,52.10
2023-04-05T10:22:05.618Z,52.36
2023-04-05T10:25:19.728Z,52.23
2023-04-05T10:28:31.562Z,51.95
2023-04-05T10:31:41.929Z,52.33
2023-04-05T10:34:59.073Z,51.35
2023-04-05T10:38:13.605Z,51.62
2023-04-05T10:41:17.731Z,52.67
2023-04-05T10:44:26.474Z,53.69
2023-04-05T10:47:33.291Z,52.65
2023-04-05T10:50:39.907Z,53.50
2023-04-05T10:53:44.529Z,53.18
2023-04-05T10:56:48.778Z,52.82
2023-04-05T10:59:55.048Z,52.95
2023-04-05T11:02:58.951Z,52.91
2023-04-05T11:06:22.826Z,52.77
2023-04-05T11:09:27.783Z,52.71
2023-04-05T11:13:06.325Z,52.31
2023-04-05T11:16:10.710Z,52.53
2023-04-05T11:19:14.571Z,52.88
2023-04-05T11:22:27.675Z,52.67
2023-04-05T11:25:31.554Z,51.96
2023-04-05T11:28:39.771Z,52.22
2023-04-05T11:32:02.119Z,52.76
2023-04-05T11:35:08.278Z,52.71
2023-04-05T11:38:23.610Z,53.18
2023-04-05T11:41:34.982Z,52.99
2023-04-05T11:44:47.078Z,52.59
2023-04-05T11:47:51.279Z,51.80
2023-04-05T11:50:56.191Z,51.04
2023-04-05T11:54:01.321Z,52.10
2023-04-05T11:57:05.609Z,52.59
2023-04-05T12:00:10.500Z,52.20
2023-04-05T12:03:15.777Z,52.26
2023-04-05T12:06:23.889Z,52.77
2023-04-05T12:09:29.109Z,51.88
2023-04-05T12:12:38.551Z,50.98
2023-04-05T12:15:42.574Z,51.99
2023-04-05T12:18:46.560Z,52.16
2023-04-05T12:21:50.265Z,52.50
2023-04-05T12:24:55.532Z,52.54
2023-04-05T12:28:06.143Z,52.69
2023-04-05T12:31:12.449Z,52.83
2023-04-05T12:34:24.909Z,53.48
2023-04-05T12:37:29.731Z,53.76
2023-04-05T12:40:36.205Z,56.20
2023-04-05T12:43:41.097Z,56.75
2023-04-05T12:46:47.110Z,55.85
2023-04-05T12:49:50.831Z,54.72
2023-04-05T12:52:56.240Z,55.01
2023-04-05T12:56:02.032Z,54.44
2023-04-05T12:59:08.792Z,54.88
2023-04-05T13:02:12.663Z,54.38
2023-04-05T13:05:16.452Z,54.47
2023-04-05T13:08:20.554Z,54.21
2023-04-05T13:11:26.072Z,56.94
2023-04-05T13:14:29.845Z,57.86
2023-04-05T13:17:33.662Z,59.25
2023-04-05T13:20:38.013Z,59.87
2023-04-05T13:23:42.454Z,58.03
2023-04-05T13:26:47.523Z,59.23
2023-04-05T13:29:51.258Z,57.55
2023-04-05T13:32:54.995Z,57.57
2023-04-05T13:35:58.838Z,56.62
2023-04-05T13:39:02.518Z,56.84
2023-04-05T13:42:07.872Z,56.80
2023-04-05T13:45:12.341Z,57.93
2023-04-05T13:48:16.014Z,57.12
2023-04-05T13:51:19.722Z,56.73
2023-04-05T13:54:23.371Z,56.66
2023-04-05T13:57:28.695Z,56.22
2023-04-05T14:00:32.404Z,56.32
2023-04-05T14:03:36.226Z,56.45
2023-04-05T14:06:40.153Z,57.76
2023-04-05T14:09:45.009Z,55.76
2023-04-05T14:12:50.003Z,56.82
2023-04-05T14:15:53.996Z,56.32
2023-04-05T14:18:57.718Z,56.12
2023-04-05T14:22:02.268Z,56.77
2023-04-05T14:25:08.328Z,56.89
2023-04-05T14:28:13.621Z,58.08
2023-04-05T14:31:17.606Z,57.28
2023-04-05T14:34:21.505Z,55.52
2023-04-05T14:37:25.272Z,55.07
2023-04-05T14:40:29.037Z,54.29
2023-04-05T14:43:34.300Z,54.57
2023-04-05T14:46:38.210Z,56.80
2023-04-05T14:49:42.287Z,59.69
2023-04-05T14:52:46.851Z,59.59
2023-04-05T14:55:50.652Z,59.50
2023-04-05T14:58:56.008Z,61.67
2023-04-05T15:01:59.835Z,62.03
2023-04-05T15:05:03.762Z,58.84
2023-04-05T15:08:07.536Z,57.98
2023-04-05T15:11:11.403Z,57.11
2023-04-05T15:14:28.660Z,56.18
2023-04-05T15:17:35.351Z,55.27
2023-04-05T15:20:39.600Z,55.55
2023-04-05T15:23:43.336Z,54.86
2023-04-05T15:26:47.045Z,55.51
2023-04-05T15:29:52.336Z,54.61
2023-04-05T15:32:57.034Z,54.73
2023-04-05T15:36:00.898Z,54.27
2023-04-05T15:39:05.494Z,55.11
2023-04-05T15:42:09.367Z,54.78
2023-04-05T15:45:14.699Z,54.60
2023-04-05T15:48:18.408Z,54.20
2023-04-05T15:51:22.195Z,54.79
2023-04-05T15:54:26.001Z,55.18
2023-04-05T15:57:29.756Z,54.77
2023-04-05T16:00:35.091Z,54.30
2023-04-05T16:03:39.032Z,54.50
2023-04-05T16:06:43.683Z,54.89
2023-04-05T16:09:47.440Z,54.98
2023-04-05T16:12:51.364Z,55.51
2023-04-05T16:15:56.721Z,55.38
2023-04-05T16:19:01.536Z,55.64
2023-04-05T16:22:06.401Z,55.61
2023-04-05T16:25:10.339Z,55.83
2023-04-05T16:28:14.395Z,55.38
2023-04-05T16:31:19.702Z,55.93
2023-04-05T16:34:23.521Z,55.99
2023-04-05T16:37:27.212Z,56.41
2023-04-05T16:40:31.417Z,55.64
2023-04-05T16:43:35.313Z,55.64
2023-04-05T16:46:40.623Z,54.91
2023-04-05T16:49:44.369Z,54.51
2023-04-05T16:52:48.094Z,55.09
2023-04-05T16:55:51.982Z,54.93
2023-04-05T16:58:56.991Z,55.15
2023-04-05T17:02:02.289Z,55.15
2023-04-05T17:05:07.135Z,54.89
2023-04-05T17:08:10.979Z,55.88
2023-04-05T17:11:14.819Z,55.62
2023-04-05T17:14:18.640Z,55.23
2023-04-05T17:17:23.935Z,55.33
2023-04-05T17:20:27.763Z,55.77
2023-04-05T17:23:31.459Z,56.45
2023-04-05T17:26:35.157Z,55.50
2023-04-05T17:29:40.257Z,55.88
2023-04-05T17:32:45.529Z,55.83
2023-04-05T17:35:49.332Z,55.74
2023-04-05T17:38:53.185Z,55.94
2023-04-05T17:41:57.000Z,55.02
2023-04-05T17:45:00.852Z,54.90
2023-04-05T17:48:06.648Z,54.45
2023-04-05T17:51:10.840Z,54.50
2023-04-05T17:54:15.730Z,54.07
2023-04-05T17:57:19.706Z,53.91
2023-04-05T18:00:23.831Z,53.65
2023-04-05T18:03:29.801Z,54.42
2023-04-05T18:06:33.616Z,54.02
2023-04-05T18:09:38.702Z,54.56
2023-04-05T18:12:42.557Z,54.02
2023-04-05T18:15:46.325Z,54.26
2023-04-05T18:18:51.765Z,54.63
2023-04-05T18:21:55.547Z,55.04
2023-04-05T18:24:59.253Z,54.37
2023-04-05T18:28:06.857Z,54.76
2023-04-05T18:31:20.251Z,54.10
2023-04-05T18:34:26.900Z,54.99
2023-04-05T18:37:30.707Z,54.86
2023-04-05T18:40:34.583Z,54.45
2023-04-05T18:43:38.309Z,54.39
2023-04-05T18:46:42.118Z,54.75
2023-04-05T18:49:47.306Z,53.96
2023-04-05T18:52:51.098Z,54.01
2023-04-05T18:55:55.889Z,53.35
2023-04-05T18:58:59.748Z,54.45
2023-04-05T19:02:05.239Z,54.69
2023-04-05T19:05:11.641Z,54.69
2023-04-05T19:08:15.371Z,54.65
2023-04-05T19:11:19.384Z,54.85
2023-04-05T19:17:45.424Z,55.07
2023-04-05T19:20:54.922Z,56.40
2023-04-05T19:23:59.037Z,56.04
2023-04-05T19:27:03.046Z,56.72
2023-04-05T19:30:08.282Z,56.37
2023-04-05T19:33:12.156Z,55.81
2023-04-05T19:36:17.454Z,55.75
2023-04-05T19:39:25.623Z,55.11
2023-04-05T19:45:33.990Z,55.86
2023-04-05T19:48:40.037Z,55.48
2023-04-05T19:51:45.147Z,56.34
2023-04-05T19:54:48.890Z,56.73
2023-04-05T19:57:52.501Z,56.97
2023-04-05T20:00:56.568Z,57.83
2023-04-05T20:04:00.334Z,58.40
2023-04-05T20:07:09.192Z,58.31
2023-04-05T20:10:17.378Z,59.80
2023-04-05T20:13:21.249Z,59.41
2023-04-05T20:16:28.024Z,58.78
2023-04-05T20:19:33.356Z,60.01
2023-04-05T20:22:39.473Z,59.64
2023-04-05T20:25:46.675Z,59.97
2023-04-05T20:28:54.774Z,60.20
2023-04-05T20:31:58.642Z,60.05
2023-04-05T20:35:02.442Z,60.97
2023-04-05T20:38:07.670Z,60.94
2023-04-05T20:41:13.605Z,60.68
2023-04-05T20:44:17.520Z,60.84
2023-04-05T20:47:21.305Z,60.60
2023-04-05T20:50:25.015Z,60.87
2023-04-05T20:53:30.575Z,61.18
2023-04-05T20:56:34.262Z,61.15
2023-04-05T20:59:38.065Z,62.12
2023-04-05T21:02:41.965Z,61.57
2023-04-05T21:05:45.725Z,62.47
2023-04-05T21:09:07.141Z,62.56
2023-04-05T21:12:12.846Z,61.29
2023-04-05T21:15:16.981Z,61.69
2023-04-05T21:18:21.127Z,61.54
2023-04-05T21:21:25.135Z,61.16
2023-04-05T21:24:29.135Z,61.14
2023-04-05T21:27:34.750Z,61.19
2023-04-05T21:30:38.943Z,61.28
2023-04-05T21:33:43.058Z,61.51
2023-04-05T21:36:47.175Z,61.43
2023-04-05T21:39:51.122Z,60.36
2023-04-05T21:42:56.559Z,60.96
2023-04-05T21:46:02.055Z,61.28
2023-04-05T21:49:06.333Z,61.73
2023-04-05T21:52:10.460Z,61.98
2023-04-05T21:55:14.846Z,62.00
2023-04-05T21:58:20.427Z,60.04
2023-04-05T22:01:24.594Z,60.37
2023-04-05T22:04:29.479Z,60.67
2023-04-05T22:07:33.716Z,60.36
2023-04-05T22:10:37.977Z,60.35
2023-04-05T22:13:45.330Z,60.68
2023-04-05T22:16:49.346Z,61.01
2023-04-05T22:19:53.348Z,60.42
2023-04-05T22:22:57.529Z,60.89
2023-04-05T22:26:01.598Z,61.68
2023-04-05T22:29:07.814Z,61.06
2023-04-05T22:32:12.173Z,60.77
2023-04-05T22:35:16.211Z,60.58
2023-04-05T22:38:20.217Z,60.14
2023-04-05T22:41:24.154Z,61.31
2023-04-05T22:44:29.507Z,60.35
2023-04-05T22:47:33.546Z,59.76
2023-04-05T22:50:37.605Z,59.16
2023-04-05T22:53:43.574Z,58.89
2023-04-05T22:56:47.371Z,58.80
2023-04-05T22:59:52.712Z,58.55
2023-04-05T23:02:56.555Z,58.65
2023-04-05T23:06:00.430Z,58.49
2023-04-05T23:09:05.156Z,58.52
2023-04-05T23:12:11.357Z,59.02
2023-04-05T23:15:16.784Z,59.09
2023-04-05T23:18:22.972Z,58.94
2023-04-05T23:21:27.044Z,58.97
2023-04-05T23:24:30.954Z,59.63
2023-04-05T23:27:34.875Z,58.95
2023-04-05T23:30:40.341Z,59.14
2023-04-05T23:33:44.214Z,60.06
2023-04-05T23:36:48.106Z,59.74
2023-04-05T23:39:52.078Z,59.46
2023-04-05T23:42:55.975Z,59.96
2023-04-05T23:46:01.404Z,59.45
2023-04-05T23:49:05.199Z,59.29
2023-04-05T23:52:09.038Z,60.53
2023-04-05T23:55:12.909Z,60.72
2023-04-05T23:58:16.850Z,60.16
